Time;durP1;ratioP1;P1;durP2;ratioP2;P2;SDS_P1;SDS_P2;PMS_P1;PMS_P2;Temp;Humidity;BMP_temperature;BMP_pressure;BME280_temperature;BME280_humidity;BME280_pressure;Samples;Min_cycle;Max_cycle;Signal;HPM_P1;HPM_P2
2021/05/15 00:01:28;;;;;;;1.23;0.40;;;10.30;99.90;;;;;;4964968;28;20107;-75
2021/05/15 00:03:53;;;;;;;0.77;0.50;;;10.20;99.90;;;;;;4970441;28;20177;-75
2021/05/15 00:06:19;;;;;;;0.85;0.35;;;10.00;99.90;;;;;;4965393;28;20575;-75
2021/05/15 00:08:45;;;;;;;1.35;0.60;;;10.10;99.90;;;;;;4952600;28;20082;-75
2021/05/15 00:11:10;;;;;;;2.05;0.80;;;10.10;99.90;;;;;;4951288;28;20101;-75
2021/05/15 00:13:36;;;;;;;0.70;0.50;;;10.20;99.90;;;;;;4966738;28;20080;-75
2021/05/15 00:16:01;;;;;;;0.90;0.70;;;10.20;99.90;;;;;;4968929;28;20107;-75
2021/05/15 00:18:27;;;;;;;1.00;0.60;;;10.20;99.90;;;;;;4957361;28;20534;-75
2021/05/15 00:20:53;;;;;;;2.30;0.75;;;10.20;99.90;;;;;;4959463;28;20186;-75
2021/05/15 00:23:19;;;;;;;1.73;0.50;;;10.20;99.90;;;;;;4957816;28;20551;-74
2021/05/15 00:25:44;;;;;;;1.10;0.65;;;10.20;99.90;;;;;;4950384;28;20147;-75
2021/05/15 00:28:10;;;;;;;0.57;0.40;;;10.10;99.90;;;;;;4936819;29;20508;-75
2021/05/15 00:30:35;;;;;;;1.05;0.50;;;10.20;99.90;;;;;;4959498;28;20110;-74
2021/05/15 00:33:01;;;;;;;0.88;0.40;;;10.10;99.90;;;;;;4963274;28;21039;-75
2021/05/15 00:35:26;;;;;;;0.93;0.60;;;10.20;99.90;;;;;;4957768;28;20163;-76
2021/05/15 00:37:52;;;;;;;2.17;0.55;;;10.30;99.90;;;;;;4953464;28;20564;-76
2021/05/15 00:40:18;;;;;;;2.55;0.65;;;10.10;99.90;;;;;;4952033;28;20135;-76
2021/05/15 00:42:46;;;;;;;1.10;0.60;;;10.20;99.90;;;;;;4958887;28;20088;-75
2021/05/15 00:45:13;;;;;;;2.70;0.63;;;10.20;99.90;;;;;;4959877;28;20122;-75
2021/05/15 00:47:39;;;;;;;3.45;0.60;;;10.20;99.90;;;;;;4954250;28;20087;-74
2021/05/15 00:50:06;;;;;;;1.25;0.60;;;10.10;99.90;;;;;;4954065;28;20084;-76
2021/05/15 00:52:36;;;;;;;1.63;0.50;;;10.20;99.90;;;;;;4971454;28;20102;-75
2021/05/15 00:55:11;;;;;;;2.75;0.80;;;10.20;99.90;;;;;;4962931;28;20083;-76
2021/05/15 00:57:38;;;;;;;1.08;0.70;;;10.20;99.90;;;;;;4954793;28;20093;-75
2021/05/15 01:00:07;;;;;;;1.23;0.70;;;10.10;99.90;;;;;;4954740;28;20103;-76
2021/05/15 01:02:33;;;;;;;1.73;0.43;;;10.00;99.90;;;;;;4953643;28;20624;-76
2021/05/15 01:04:58;;;;;;;1.20;0.80;;;10.00;99.90;;;;;;4956453;28;20100;-76
2021/05/15 01:07:24;;;;;;;1.05;0.60;;;9.90;99.90;;;;;;4937901;28;20089;-76
2021/05/15 01:09:49;;;;;;;1.77;0.68;;;9.90;99.90;;;;;;4971555;28;20075;-76
2021/05/15 01:12:15;;;;;;;1.58;0.73;;;10.00;99.90;;;;;;4964395;28;20141;-75
2021/05/15 01:14:41;;;;;;;3.65;0.60;;;10.10;99.90;;;;;;4941945;28;20512;-76
2021/05/15 01:17:08;;;;;;;1.25;0.50;;;10.00;99.90;;;;;;4956512;28;20078;-75
2021/05/15 01:19:35;;;;;;;0.85;0.70;;;10.00;99.90;;;;;;4964182;28;20103;-75
2021/05/15 01:22:04;;;;;;;1.98;0.70;;;9.90;99.90;;;;;;4954105;28;20111;-76
2021/05/15 01:24:30;;;;;;;1.27;0.88;;;10.00;99.90;;;;;;4950042;28;20570;-76
2021/05/15 01:26:55;;;;;;;0.80;0.68;;;10.00;99.90;;;;;;4960105;28;20160;-76
2021/05/15 01:29:21;;;;;;;0.98;0.90;;;10.00;99.90;;;;;;4959632;28;20439;-76
2021/05/15 01:31:47;;;;;;;1.60;0.75;;;10.00;99.90;;;;;;4961216;28;20131;-76
2021/05/15 01:34:12;;;;;;;0.95;0.55;;;10.00;99.90;;;;;;4959247;28;20084;-75
2021/05/15 01:36:42;;;;;;;2.45;0.85;;;10.00;99.90;;;;;;4955043;28;20086;-76
2021/05/15 01:39:09;;;;;;;1.23;0.60;;;10.10;99.90;;;;;;4968609;28;20083;-75
2021/05/15 01:41:35;;;;;;;1.20;0.85;;;10.10;99.90;;;;;;4953143;28;20101;-76
2021/05/15 01:44:01;;;;;;;4.63;0.50;;;10.10;99.90;;;;;;4953826;28;20099;-76
2021/05/15 01:46:26;;;;;;;2.20;0.47;;;10.00;99.90;;;;;;4957202;28;20081;-76
2021/05/15 01:48:52;;;;;;;2.50;0.70;;;10.00;99.90;;;;;;4951628;28;20095;-75
2021/05/15 01:51:17;;;;;;;0.93;0.55;;;10.10;99.90;;;;;;4958265;28;20092;-74
2021/05/15 01:53:47;;;;;;;0.98;0.47;;;10.20;99.90;;;;;;4955915;28;20091;-76
2021/05/15 01:56:14;;;;;;;3.03;1.40;;;10.20;99.90;;;;;;4953188;28;20098;-76
2021/05/15 01:58:40;;;;;;;0.98;0.50;;;10.20;99.90;;;;;;4962997;28;20103;-75
2021/05/15 02:01:06;;;;;;;2.17;0.57;;;10.10;99.90;;;;;;4970408;28;20436;-75
2021/05/15 02:03:33;;;;;;;0.90;0.50;;;10.20;99.90;;;;;;4955974;28;20155;-75
2021/05/15 02:05:59;;;;;;;4.75;0.90;;;10.10;99.90;;;;;;4957660;28;20068;-76
2021/05/15 02:08:25;;;;;;;1.00;0.47;;;10.00;99.90;;;;;;4963807;28;20086;-76
2021/05/15 02:10:52;;;;;;;1.17;1.02;;;10.00;99.90;;;;;;4958172;28;20170;-76
2021/05/15 02:13:18;;;;;;;0.77;0.73;;;10.00;99.90;;;;;;4936106;29;20092;-75
2021/05/15 02:15:46;;;;;;;1.08;0.70;;;9.90;99.90;;;;;;4953816;28;20076;-76
2021/05/15 02:18:13;;;;;;;0.93;0.60;;;10.00;99.90;;;;;;4963893;28;20080;-76
2021/05/15 02:20:38;;;;;;;1.27;0.85;;;9.90;99.90;;;;;;4957141;28;20131;-75
2021/05/15 02:23:04;;;;;;;1.23;0.68;;;9.90;99.90;;;;;;4958405;28;20107;-75
2021/05/15 02:25:30;;;;;;;0.57;0.57;;;10.00;99.90;;;;;;4954098;28;20171;-76
2021/05/15 02:27:56;;;;;;;1.50;0.70;;;10.00;99.90;;;;;;4970916;28;20115;-76
2021/05/15 02:30:23;;;;;;;1.20;0.73;;;9.90;99.90;;;;;;4971807;28;20590;-75
2021/05/15 02:32:49;;;;;;;1.27;0.60;;;9.90;99.90;;;;;;4972665;28;20068;-75
2021/05/15 02:35:16;;;;;;;2.67;0.77;;;9.80;99.90;;;;;;4970865;28;20481;-76
2021/05/15 02:37:42;;;;;;;0.75;0.60;;;9.90;99.90;;;;;;4977566;28;20082;-75
2021/05/15 02:40:09;;;;;;;0.95;0.60;;;9.90;99.90;;;;;;4974940;28;20126;-75
2021/05/15 02:42:35;;;;;;;1.25;1.10;;;9.80;99.90;;;;;;4954976;28;20211;-76
2021/05/15 02:45:02;;;;;;;0.88;0.70;;;9.90;99.90;;;;;;4964639;28;20098;-76
2021/05/15 02:47:28;;;;;;;1.17;0.80;;;10.00;99.90;;;;;;4958728;28;20120;-75
2021/05/15 02:49:53;;;;;;;1.08;0.60;;;9.90;99.90;;;;;;4971176;28;20106;-76
2021/05/15 02:52:19;;;;;;;0.80;0.50;;;10.00;99.90;;;;;;4956296;28;20541;-75
2021/05/15 02:54:44;;;;;;;1.13;0.60;;;9.90;99.90;;;;;;4954199;28;20083;-75
2021/05/15 02:57:10;;;;;;;0.90;0.60;;;9.90;99.90;;;;;;4956012;28;20491;-75
2021/05/15 02:59:36;;;;;;;0.60;0.40;;;10.00;99.90;;;;;;4939317;28;20071;-76
2021/05/15 03:02:03;;;;;;;0.90;0.70;;;9.90;99.90;;;;;;4954550;28;20119;-75
2021/05/15 03:04:29;;;;;;;0.60;0.40;;;9.90;99.90;;;;;;4958890;28;20087;-75
2021/05/15 03:06:54;;;;;;;1.02;0.45;;;9.80;99.90;;;;;;4969190;28;20174;-75
2021/05/15 03:09:20;;;;;;;1.02;0.57;;;9.90;99.90;;;;;;4969326;28;20150;-75
2021/05/15 03:11:45;;;;;;;2.72;0.52;;;9.90;99.90;;;;;;4953619;28;20455;-75
2021/05/15 03:14:11;;;;;;;1.48;0.50;;;10.00;99.90;;;;;;4956738;28;20168;-75
2021/05/15 03:16:37;;;;;;;1.15;0.38;;;9.90;99.90;;;;;;4952561;28;20146;-75
2021/05/15 03:19:03;;;;;;;0.52;0.38;;;9.90;99.90;;;;;;4961783;28;20076;-75
2021/05/15 03:21:28;;;;;;;1.23;0.40;;;9.80;99.90;;;;;;4938965;28;20087;-76
2021/05/15 03:23:54;;;;;;;1.02;0.40;;;9.70;99.90;;;;;;4954033;28;20098;-75
2021/05/15 03:26:20;;;;;;;0.32;0.30;;;9.70;99.90;;;;;;4962439;28;20552;-75
2021/05/15 03:28:45;;;;;;;1.30;0.68;;;9.70;99.90;;;;;;4968680;28;20082;-75
2021/05/15 03:31:11;;;;;;;0.50;0.50;;;9.70;99.90;;;;;;4970510;28;20882;-75
2021/05/15 03:33:37;;;;;;;1.23;0.38;;;9.80;99.90;;;;;;4966487;28;20546;-75
2021/05/15 03:36:04;;;;;;;1.23;1.00;;;9.90;99.90;;;;;;4959663;28;20091;-76
2021/05/15 03:38:30;;;;;;;1.70;0.75;;;9.90;99.90;;;;;;4969528;28;20075;-75
2021/05/15 03:40:55;;;;;;;0.95;0.40;;;10.00;99.90;;;;;;4965195;28;20169;-76
2021/05/15 03:43:21;;;;;;;0.65;0.50;;;9.90;99.90;;;;;;4967470;28;20103;-76
2021/05/15 03:45:47;;;;;;;0.70;0.47;;;9.90;99.90;;;;;;4953137;28;20084;-76
2021/05/15 03:48:19;;;;;;;0.82;0.30;;;9.90;99.90;;;;;;4960770;28;20075;-76
2021/05/15 03:50:45;;;;;;;0.50;0.40;;;10.00;99.90;;;;;;4961941;28;20140;-76
2021/05/15 03:53:11;;;;;;;0.60;0.32;;;10.10;99.90;;;;;;4952472;28;20163;-75
2021/05/15 03:55:37;;;;;;;0.73;0.52;;;10.00;99.90;;;;;;4944007;28;20171;-76
2021/05/15 03:58:04;;;;;;;3.78;0.50;;;9.90;99.90;;;;;;4935504;28;20111;-76
2021/05/15 04:00:29;;;;;;;1.30;0.70;;;9.70;99.90;;;;;;4947527;28;20491;-75
2021/05/15 04:02:55;;;;;;;1.92;0.68;;;9.60;99.90;;;;;;4960101;28;20083;-76
2021/05/15 04:05:21;;;;;;;0.90;0.40;;;9.70;99.90;;;;;;4969980;28;20109;-76
2021/05/15 04:07:46;;;;;;;0.73;0.50;;;9.70;99.90;;;;;;4950968;28;20071;-75
2021/05/15 04:10:12;;;;;;;0.95;0.28;;;9.70;99.90;;;;;;4970576;28;20114;-76
2021/05/15 04:12:46;;;;;;;0.65;0.50;;;9.60;99.90;;;;;;4956872;28;20443;-75
2021/05/15 04:15:18;;;;;;;0.82;0.40;;;9.50;99.90;;;;;;4961492;28;20074;-75
2021/05/15 04:17:43;;;;;;;1.08;0.40;;;9.60;99.90;;;;;;4962883;28;20079;-75
2021/05/15 04:20:09;;;;;;;0.88;0.47;;;9.60;99.90;;;;;;4951689;28;20500;-75
2021/05/15 04:22:35;;;;;;;1.42;0.38;;;9.50;99.90;;;;;;4950849;28;20080;-75
2021/05/15 04:25:02;;;;;;;0.85;0.60;;;9.40;99.90;;;;;;4964025;28;20102;-75
2021/05/15 04:27:28;;;;;;;1.98;0.57;;;9.50;99.90;;;;;;4959368;28;20067;-75
2021/05/15 04:29:55;;;;;;;1.08;0.40;;;9.40;99.90;;;;;;4951295;28;20488;-75
2021/05/15 04:32:20;;;;;;;0.98;0.60;;;9.50;99.90;;;;;;4942034;28;20071;-76
2021/05/15 04:34:46;;;;;;;0.85;0.57;;;9.60;99.90;;;;;;4961486;28;20483;-75
2021/05/15 04:37:11;;;;;;;0.75;0.45;;;9.70;99.90;;;;;;4966448;28;20166;-75
2021/05/15 04:39:37;;;;;;;3.65;1.35;;;9.70;99.90;;;;;;4951749;28;20152;-75
2021/05/15 04:42:03;;;;;;;0.80;0.40;;;9.80;99.90;;;;;;4963294;28;20583;-75
2021/05/15 04:44:29;;;;;;;0.95;0.50;;;9.80;99.90;;;;;;4965658;28;20106;-76
2021/05/15 04:46:55;;;;;;;2.65;0.68;;;9.80;99.90;;;;;;4950631;28;20079;-75
2021/05/15 04:49:21;;;;;;;2.70;0.38;;;9.70;99.90;;;;;;4966615;28;20079;-76
2021/05/15 04:51:46;;;;;;;1.63;0.77;;;9.70;99.90;;;;;;4961157;28;20849;-75
2021/05/15 04:54:12;;;;;;;1.15;0.40;;;9.70;99.90;;;;;;4960345;28;20095;-75
2021/05/15 04:56:39;;;;;;;1.92;0.47;;;9.70;99.90;;;;;;4938905;28;20547;-75
2021/05/15 04:59:05;;;;;;;1.25;0.50;;;9.70;99.90;;;;;;4969613;28;20106;-75
2021/05/15 05:01:31;;;;;;;1.13;0.55;;;9.80;99.90;;;;;;4969274;28;20204;-75
2021/05/15 05:03:57;;;;;;;1.95;0.40;;;9.80;99.90;;;;;;4938241;28;20182;-75
2021/05/15 05:06:22;;;;;;;0.43;0.32;;;9.90;99.90;;;;;;4962853;28;20075;-76
2021/05/15 05:08:48;;;;;;;0.40;0.40;;;9.90;99.90;;;;;;4959757;28;20076;-75
2021/05/15 05:11:14;;;;;;;0.82;0.40;;;9.90;99.90;;;;;;4970251;28;20178;-75
2021/05/15 05:13:39;;;;;;;1.25;0.57;;;9.90;99.90;;;;;;4968901;28;20083;-75
2021/05/15 05:16:05;;;;;;;0.40;0.32;;;10.00;99.90;;;;;;4952455;28;20087;-76
2021/05/15 05:18:31;;;;;;;1.30;0.60;;;9.90;99.90;;;;;;4950119;28;20087;-75
2021/05/15 05:20:57;;;;;;;1.38;0.77;;;9.80;99.90;;;;;;4969390;28;20095;-75
2021/05/15 05:23:23;;;;;;;0.85;0.40;;;9.90;99.90;;;;;;4960041;28;20652;-75
2021/05/15 05:25:49;;;;;;;2.90;0.30;;;10.00;99.90;;;;;;4956181;28;20091;-75
2021/05/15 05:28:20;;;;;;;1.05;0.38;;;9.90;99.90;;;;;;4958514;28;20444;-76
2021/05/15 05:30:45;;;;;;;0.63;0.20;;;9.80;99.90;;;;;;4966898;28;20106;-75
2021/05/15 05:33:11;;;;;;;0.68;0.47;;;9.90;99.90;;;;;;4954944;28;20076;-75
2021/05/15 05:35:38;;;;;;;1.05;0.38;;;9.90;99.90;;;;;;4957203;28;20150;-75
2021/05/15 05:38:04;;;;;;;1.42;0.30;;;9.90;99.90;;;;;;4954498;29;20167;-76
2021/05/15 05:40:29;;;;;;;3.60;0.40;;;9.80;99.90;;;;;;4963044;28;20166;-77
2021/05/15 05:42:55;;;;;;;2.78;0.38;;;9.80;99.90;;;;;;4964992;28;20500;-75
2021/05/15 05:45:21;;;;;;;0.55;0.47;;;9.80;99.90;;;;;;4971934;28;20157;-76
2021/05/15 05:47:46;;;;;;;0.68;0.40;;;9.80;99.90;;;;;;4969910;28;20071;-76
2021/05/15 05:50:12;;;;;;;1.20;0.40;;;9.90;99.90;;;;;;4955664;28;20099;-76
2021/05/15 05:52:38;;;;;;;0.50;0.40;;;9.90;99.90;;;;;;4954443;28;20599;-75
2021/05/15 05:55:06;;;;;;;0.73;0.50;;;9.90;99.90;;;;;;4956118;28;20087;-76
2021/05/15 05:57:31;;;;;;;1.45;0.40;;;9.90;99.90;;;;;;4969545;28;20166;-76
2021/05/15 05:59:57;;;;;;;0.85;0.40;;;9.90;99.90;;;;;;4971413;28;20194;-76
2021/05/15 06:02:22;;;;;;;2.28;0.30;;;10.00;99.90;;;;;;4961704;28;20462;-76
2021/05/15 06:04:48;;;;;;;1.55;0.43;;;10.00;99.90;;;;;;4963723;28;20099;-76
2021/05/15 06:07:14;;;;;;;1.90;0.40;;;10.00;99.90;;;;;;4966647;28;20071;-76
2021/05/15 06:09:40;;;;;;;1.52;0.30;;;10.00;99.90;;;;;;4968672;28;20075;-76
2021/05/15 06:12:06;;;;;;;1.60;0.32;;;10.00;99.90;;;;;;4960701;28;20122;-76
2021/05/15 06:14:33;;;;;;;1.05;0.30;;;10.00;99.90;;;;;;4960876;28;20135;-76
2021/05/15 06:16:58;;;;;;;0.80;0.40;;;10.10;99.90;;;;;;4966561;28;20123;-77
2021/05/15 06:19:24;;;;;;;0.95;0.55;;;10.00;99.90;;;;;;4968137;28;20071;-75
2021/05/15 06:21:49;;;;;;;1.75;0.40;;;10.10;99.90;;;;;;4953684;28;20147;-75
2021/05/15 06:24:15;;;;;;;1.25;0.30;;;10.00;99.90;;;;;;4960341;28;20095;-75
2021/05/15 06:26:41;;;;;;;0.85;0.30;;;10.10;99.90;;;;;;4970235;28;20119;-76
2021/05/15 06:29:06;;;;;;;1.40;0.30;;;10.20;99.90;;;;;;4967717;28;20087;-76
2021/05/15 06:31:32;;;;;;;0.50;0.40;;;10.20;99.90;;;;;;4965517;28;20124;-76
2021/05/15 06:33:57;;;;;;;1.63;0.40;;;10.20;99.90;;;;;;4969635;28;20079;-76
2021/05/15 06:36:23;;;;;;;1.15;0.50;;;10.20;99.90;;;;;;4969999;28;20079;-76
2021/05/15 06:38:48;;;;;;;1.20;0.45;;;10.20;99.90;;;;;;4964663;28;20098;-76
2021/05/15 06:41:14;;;;;;;1.20;0.70;;;10.20;99.90;;;;;;4958145;28;20102;-76
2021/05/15 06:43:39;;;;;;;2.47;0.45;;;10.20;99.90;;;;;;4952865;28;20178;-77
2021/05/15 06:46:05;;;;;;;2.08;0.70;;;10.20;99.90;;;;;;4958921;28;20551;-76
2021/05/15 06:48:31;;;;;;;0.70;0.50;;;10.30;99.90;;;;;;4967912;28;20083;-76
2021/05/15 06:50:56;;;;;;;0.80;0.70;;;10.40;99.90;;;;;;4950403;28;20095;-76
2021/05/15 06:53:22;;;;;;;1.10;0.40;;;10.30;99.90;;;;;;4950198;28;20584;-76
2021/05/15 06:55:48;;;;;;;0.40;0.30;;;10.40;99.90;;;;;;4949393;28;20507;-77
2021/05/15 06:58:14;;;;;;;1.10;0.30;;;10.40;99.90;;;;;;4964344;28;20166;-76
2021/05/15 07:00:40;;;;;;;0.85;0.40;;;10.30;99.90;;;;;;4968128;28;20560;-76
2021/05/15 07:03:06;;;;;;;2.45;0.63;;;10.30;99.90;;;;;;4962288;28;20086;-77
2021/05/15 07:05:33;;;;;;;0.50;0.35;;;10.30;99.90;;;;;;4976851;28;20169;-77
2021/05/15 07:07:59;;;;;;;1.23;0.50;;;10.30;99.90;;;;;;4942322;28;20158;-77
2021/05/15 07:10:24;;;;;;;0.50;0.32;;;10.30;99.90;;;;;;4961923;28;20175;-77
2021/05/15 07:12:54;;;;;;;0.88;0.50;;;10.40;99.90;;;;;;4967322;28;20115;-74
2021/05/15 07:15:20;;;;;;;2.15;0.85;;;10.40;99.90;;;;;;4957438;28;20173;-74
2021/05/15 07:17:46;;;;;;;1.67;0.50;;;10.50;99.90;;;;;;4956419;28;20084;-74
2021/05/15 07:20:12;;;;;;;1.40;0.40;;;10.50;99.90;;;;;;4953432;28;20083;-74
2021/05/15 07:22:40;;;;;;;1.23;0.60;;;10.40;99.90;;;;;;4951716;28;20087;-74
2021/05/15 07:25:06;;;;;;;0.85;0.63;;;10.40;99.90;;;;;;4953112;28;20092;-76
2021/05/15 07:27:33;;;;;;;2.22;0.50;;;10.50;99.90;;;;;;4949862;28;20079;-77
2021/05/15 07:30:00;;;;;;;0.70;0.50;;;10.60;99.90;;;;;;4954560;28;20095;-76
2021/05/15 07:32:26;;;;;;;2.97;0.68;;;10.70;99.90;;;;;;4962027;28;20098;-76
2021/05/15 07:34:52;;;;;;;1.23;0.70;;;10.70;99.90;;;;;;4959509;28;20108;-76
2021/05/15 07:37:18;;;;;;;2.53;0.40;;;10.80;99.90;;;;;;4951339;28;20563;-76
2021/05/15 07:39:44;;;;;;;1.05;0.50;;;10.80;99.90;;;;;;4947184;28;20157;-76
2021/05/15 07:42:10;;;;;;;2.95;1.75;;;10.90;99.90;;;;;;4940419;28;20098;-76
2021/05/15 07:44:35;;;;;;;2.17;0.80;;;10.80;99.90;;;;;;4961018;28;20096;-76
2021/05/15 07:47:02;;;;;;;1.23;0.70;;;11.00;99.90;;;;;;4933067;28;20076;-76
2021/05/15 07:49:28;;;;;;;0.80;0.70;;;11.10;99.90;;;;;;4950774;28;20126;-76
2021/05/15 07:51:54;;;;;;;3.17;0.70;;;11.10;99.90;;;;;;4959286;28;20091;-81
2021/05/15 07:54:21;;;;;;;2.67;0.40;;;11.10;99.90;;;;;;4962418;28;20089;-81
2021/05/15 07:56:48;;;;;;;1.20;0.60;;;11.20;99.90;;;;;;4955344;28;20146;-79
2021/05/15 07:59:13;;;;;;;1.08;0.55;;;11.20;99.90;;;;;;4955501;28;20428;-75
2021/05/15 08:01:39;;;;;;;1.48;0.50;;;11.30;99.90;;;;;;4958642;28;20106;-77
2021/05/15 08:04:05;;;;;;;1.58;0.60;;;11.60;99.90;;;;;;4957609;28;20180;-76
2021/05/15 08:06:31;;;;;;;2.05;0.40;;;11.70;99.90;;;;;;4967118;28;20071;-78
2021/05/15 08:08:56;;;;;;;2.03;0.60;;;11.90;99.90;;;;;;4970639;28;20072;-80
2021/05/15 08:11:22;;;;;;;0.43;0.35;;;11.80;99.90;;;;;;4954075;28;20091;-77
2021/05/15 08:13:48;;;;;;;1.15;0.30;;;11.70;99.90;;;;;;4961545;28;20541;-77
2021/05/15 08:16:14;;;;;;;1.60;0.60;;;11.80;99.90;;;;;;4966614;28;20075;-74
2021/05/15 08:18:41;;;;;;;1.52;0.30;;;11.80;99.90;;;;;;4955450;28;20079;-73
2021/05/15 08:21:08;;;;;;;1.30;0.50;;;11.80;99.90;;;;;;4969027;28;20174;-74
2021/05/15 08:23:35;;;;;;;1.10;0.47;;;11.80;99.90;;;;;;4969210;28;20099;-74
2021/05/15 08:26:04;;;;;;;0.50;0.32;;;11.80;99.90;;;;;;4963766;28;20131;-74
2021/05/15 08:28:30;;;;;;;1.35;0.50;;;12.00;99.90;;;;;;4958786;28;20080;-73
2021/05/15 08:30:56;;;;;;;0.65;0.30;;;12.00;99.90;;;;;;4941201;28;20095;-74
2021/05/15 08:33:22;;;;;;;2.28;0.70;;;12.20;99.90;;;;;;4965058;28;20079;-76
2021/05/15 08:35:48;;;;;;;2.40;0.40;;;12.30;99.90;;;;;;4951841;28;20075;-76
2021/05/15 08:38:14;;;;;;;1.95;0.73;;;12.40;99.90;;;;;;4956100;28;20095;-75
2021/05/15 08:40:40;;;;;;;1.85;0.50;;;12.50;99.90;;;;;;4950815;28;20086;-74
2021/05/15 08:43:07;;;;;;;1.10;0.50;;;12.50;99.90;;;;;;4955748;28;20110;-77
2021/05/15 08:45:32;;;;;;;0.50;0.40;;;12.70;99.90;;;;;;4947699;28;20486;-74
2021/05/15 08:48:01;;;;;;;1.60;0.47;;;12.90;99.90;;;;;;4956002;28;20097;-76
2021/05/15 08:50:29;;;;;;;1.05;0.40;;;12.90;99.90;;;;;;4953146;28;20175;-75
2021/05/15 08:52:56;;;;;;;0.95;0.22;;;12.80;99.90;;;;;;4953508;28;20103;-75
2021/05/15 08:55:29;;;;;;;0.70;0.40;;;13.00;99.90;;;;;;4951774;29;20064;-75
2021/05/15 08:57:57;;;;;;;0.40;0.25;;;13.10;99.90;;;;;;4950257;29;20127;-75
2021/05/15 09:00:26;;;;;;;1.52;0.40;;;13.20;99.90;;;;;;4962113;28;20091;-77
2021/05/15 09:02:56;;;;;;;1.23;0.75;;;13.50;99.90;;;;;;4947212;28;20083;-75
2021/05/15 09:05:23;;;;;;;1.45;0.50;;;13.60;99.90;;;;;;4952111;28;20096;-75
2021/05/15 09:07:53;;;;;;;0.63;0.28;;;13.30;99.90;;;;;;4970818;28;20068;-79
2021/05/15 09:10:23;;;;;;;2.90;0.65;;;13.20;99.90;;;;;;4974682;28;20095;-77
2021/05/15 09:12:48;;;;;;;0.80;0.40;;;13.30;99.90;;;;;;4963580;28;20425;-79
2021/05/15 09:15:15;;;;;;;0.82;0.75;;;13.50;99.90;;;;;;4955187;28;20129;-77
2021/05/15 09:17:49;;;;;;;0.32;0.20;;;13.60;99.90;;;;;;4966245;28;20087;-73
2021/05/15 09:20:30;;;;;;;0.80;0.28;;;13.50;99.90;;;;;;4954536;28;20110;-74
2021/05/15 09:22:56;;;;;;;1.75;0.30;;;13.50;99.90;;;;;;4966056;28;20476;-74
2021/05/15 09:25:22;;;;;;;0.85;0.40;;;13.60;99.90;;;;;;4960981;28;20178;-75
2021/05/15 09:27:49;;;;;;;1.38;0.30;;;13.50;99.90;;;;;;4941699;28;20095;-75
2021/05/15 09:30:16;;;;;;;0.32;0.20;;;13.40;99.90;;;;;;4967790;28;20076;-76
2021/05/15 09:32:42;;;;;;;0.50;0.50;;;13.40;99.90;;;;;;4964100;28;20079;-76
2021/05/15 09:35:19;;;;;;;0.57;0.17;;;13.30;99.90;;;;;;4952366;28;20556;-76
2021/05/15 09:37:49;;;;;;;0.60;0.40;;;13.30;99.90;;;;;;4967430;28;20083;-75
2021/05/15 09:40:20;;;;;;;0.63;0.20;;;13.30;99.90;;;;;;4963249;28;20099;-76
2021/05/15 09:42:58;;;;;;;0.63;0.22;;;13.30;99.90;;;;;;4950434;28;20556;-75
2021/05/15 09:45:30;;;;;;;2.25;0.47;;;13.30;99.90;;;;;;4959357;28;20576;-76
2021/05/15 09:48:08;;;;;;;1.20;0.20;;;13.20;99.90;;;;;;4945682;28;20083;-75
2021/05/15 09:50:36;;;;;;;1.73;0.50;;;13.10;99.90;;;;;;4965693;28;20098;-74
2021/05/15 09:53:03;;;;;;;0.30;0.30;;;13.20;99.90;;;;;;4964957;28;20090;-72
2021/05/15 09:55:29;;;;;;;1.05;0.47;;;13.10;99.90;;;;;;4961376;28;20162;-73
2021/05/15 09:57:55;;;;;;;0.55;0.28;;;13.10;99.90;;;;;;4969982;28;20259;-74
2021/05/15 10:00:22;;;;;;;0.38;0.20;;;13.10;99.90;;;;;;4951029;28;20143;-73
2021/05/15 10:02:55;;;;;;;0.85;0.50;;;13.20;99.90;;;;;;4970108;28;20606;-76
2021/05/15 10:05:23;;;;;;;0.73;0.45;;;13.20;99.90;;;;;;4951420;28;20099;-77
2021/05/15 10:07:49;;;;;;;1.23;0.43;;;13.20;99.90;;;;;;4937455;29;20075;-76
2021/05/15 10:10:14;;;;;;;1.00;0.35;;;13.20;99.90;;;;;;4951520;28;20094;-75
2021/05/15 10:12:40;;;;;;;2.60;0.40;;;13.20;99.90;;;;;;4957683;28;20122;-76
2021/05/15 10:15:07;;;;;;;0.80;0.25;;;13.40;99.90;;;;;;4958379;28;20080;-77
2021/05/15 10:17:36;;;;;;;1.13;0.35;;;13.50;99.90;;;;;;4953744;28;20147;-75
2021/05/15 10:20:09;;;;;;;0.43;0.40;;;13.70;99.90;;;;;;4955852;28;20084;-78
2021/05/15 10:22:43;;;;;;;1.55;0.40;;;14.00;99.90;;;;;;4960330;28;20083;-75
2021/05/15 10:25:18;;;;;;;1.67;0.50;;;14.20;99.90;;;;;;4955958;28;20437;-75
2021/05/15 10:28:04;;;;;;;1.08;0.50;;;14.10;99.90;;;;;;4953846;29;20114;-75
2021/05/15 10:30:31;;;;;;;0.40;0.40;;;14.20;99.90;;;;;;4955086;28;20106;-77
2021/05/15 10:33:02;;;;;;;0.88;0.60;;;14.10;99.90;;;;;;4960181;28;20076;-75
2021/05/15 10:35:39;;;;;;;1.40;0.50;;;14.30;99.90;;;;;;4953941;28;20083;-82
2021/05/15 10:38:32;;;;;;;1.38;0.30;;;14.50;99.90;;;;;;4938109;29;20083;-79
2021/05/15 10:41:25;;;;;;;0.90;0.50;;;14.40;99.90;;;;;;4970431;28;20564;-76
2021/05/15 10:43:51;;;;;;;0.75;0.40;;;14.10;99.90;;;;;;4972278;28;20146;-78
2021/05/15 10:46:28;;;;;;;2.63;0.40;;;14.00;99.90;;;;;;4963652;28;20111;-76
2021/05/15 10:48:59;;;;;;;0.52;0.32;;;14.00;99.90;;;;;;4967909;28;20142;-75
2021/05/15 10:51:46;;;;;;;10.45;0.63;;;14.10;99.90;;;;;;4965227;28;20134;-75
2021/05/15 10:54:32;;;;;;;2.58;0.32;;;14.40;99.90;;;;;;4959755;28;20102;-75
2021/05/15 10:57:21;;;;;;;1.85;0.60;;;14.50;99.90;;;;;;4965780;28;20079;-76
2021/05/15 10:59:58;;;;;;;0.80;0.22;;;14.90;99.90;;;;;;4959706;28;20076;-76
2021/05/15 11:02:36;;;;;;;0.28;0.20;;;14.90;99.90;;;;;;4958018;28;20079;-75
2021/05/15 11:05:09;;;;;;;1.95;0.40;;;14.60;99.90;;;;;;4948621;29;20171;-75
2021/05/15 11:07:38;;;;;;;0.75;0.32;;;14.40;99.90;;;;;;4963748;28;20084;-75
2021/05/15 11:10:09;;;;;;;1.48;0.30;;;14.40;99.90;;;;;;4959796;28;20075;-75
2021/05/15 11:12:42;;;;;;;0.50;0.20;;;14.30;99.90;;;;;;4960374;28;20072;-76
2021/05/15 11:15:11;;;;;;;0.25;0.20;;;14.30;99.90;;;;;;4952726;28;20076;-75
2021/05/15 11:17:37;;;;;;;0.30;0.17;;;14.20;99.90;;;;;;4953471;28;20080;-77
2021/05/15 11:20:13;;;;;;;1.25;0.20;;;14.20;99.90;;;;;;4958036;28;20080;-75
2021/05/15 11:22:43;;;;;;;1.15;0.40;;;14.10;99.90;;;;;;4954696;28;20087;-75
2021/05/15 11:25:14;;;;;;;1.75;0.38;;;14.20;99.90;;;;;;4952813;28;20099;-78
2021/05/15 11:27:47;;;;;;;1.58;0.20;;;14.10;99.90;;;;;;4953054;28;20095;-75
2021/05/15 11:30:18;;;;;;;1.65;0.35;;;14.20;99.90;;;;;;4959736;28;20067;-75
2021/05/15 11:33:06;;;;;;;1.73;0.20;;;14.10;99.90;;;;;;4962491;28;20075;-76
2021/05/15 11:35:36;;;;;;;2.63;0.40;;;14.00;99.90;;;;;;4965840;28;20567;-76
2021/05/15 11:38:03;;;;;;;0.30;0.20;;;14.00;99.90;;;;;;4960456;28;20091;-76
2021/05/15 11:40:28;;;;;;;0.43;0.30;;;14.00;99.90;;;;;;4964979;28;20109;-75
2021/05/15 11:42:57;;;;;;;1.75;0.30;;;13.90;99.90;;;;;;4955922;28;20079;-75
2021/05/15 11:45:32;;;;;;;0.95;0.30;;;13.90;99.90;;;;;;4951233;28;20101;-75
2021/05/15 11:48:22;;;;;;;0.50;0.30;;;13.70;99.90;;;;;;4951807;28;20158;-76
2021/05/15 11:51:17;;;;;;;0.32;0.15;;;13.80;99.90;;;;;;4949160;28;20098;-76
2021/05/15 11:53:42;;;;;;;0.85;0.10;;;13.80;99.90;;;;;;4958161;28;20550;-75
2021/05/15 11:56:15;;;;;;;1.17;0.20;;;13.80;99.90;;;;;;4950889;28;20083;-76
2021/05/15 11:58:49;;;;;;;0.60;0.20;;;13.80;99.90;;;;;;4959936;28;20566;-75
2021/05/15 12:01:19;;;;;;;0.40;0.20;;;14.00;99.90;;;;;;4965475;28;20334;-74
2021/05/15 12:03:44;;;;;;;1.25;0.60;;;13.90;99.90;;;;;;4955257;28;20186;-74
2021/05/15 12:06:13;;;;;;;0.50;0.30;;;14.00;99.90;;;;;;4954007;28;20126;-74
2021/05/15 12:08:39;;;;;;;2.75;0.35;;;14.10;99.90;;;;;;4950112;28;20071;-74
2021/05/15 12:11:04;;;;;;;1.63;0.32;;;14.30;99.90;;;;;;4965419;28;20099;-75
2021/05/15 12:13:30;;;;;;;2.05;0.30;;;14.40;99.90;;;;;;4960080;28;20078;-76
2021/05/15 12:15:56;;;;;;;1.20;0.57;;;14.30;99.90;;;;;;4952751;28;20083;-75
2021/05/15 12:18:21;;;;;;;0.28;0.20;;;14.60;99.90;;;;;;4965729;28;20071;-75
2021/05/15 12:20:49;;;;;;;0.40;0.20;;;15.20;99.90;;;;;;4943539;28;20186;-74
2021/05/15 12:23:22;;;;;;;0.28;0.20;;;15.50;99.90;;;;;;4959786;28;20475;-76
2021/05/15 12:26:01;;;;;;;1.58;0.22;;;15.40;99.90;;;;;;4960613;28;20092;-76
2021/05/15 12:28:29;;;;;;;0.40;0.10;;;15.30;99.90;;;;;;4968174;28;20972;-76
2021/05/15 12:30:55;;;;;;;0.40;0.20;;;15.10;99.90;;;;;;4955741;28;20143;-75
2021/05/15 12:33:25;;;;;;;0.82;0.20;;;14.90;99.90;;;;;;4968019;28;20372;-74
2021/05/15 12:36:07;;;;;;;1.45;0.20;;;14.80;99.90;;;;;;4949467;28;20076;-77
2021/05/15 12:38:51;;;;;;;0.30;0.20;;;15.10;99.90;;;;;;4939333;28;20083;-75
2021/05/15 12:41:18;;;;;;;1.25;0.30;;;15.10;99.90;;;;;;4965513;28;20622;-75
2021/05/15 12:43:47;;;;;;;1.95;0.30;;;15.10;99.90;;;;;;4949289;28;20092;-76
2021/05/15 12:46:23;;;;;;;0.65;0.30;;;15.10;99.90;;;;;;4948965;28;20110;-74
2021/05/15 12:48:59;;;;;;;1.83;0.28;;;15.00;99.90;;;;;;4952373;28;20075;-74
2021/05/15 12:51:32;;;;;;;1.00;0.28;;;14.90;99.90;;;;;;4950563;28;21469;-74
2021/05/15 12:53:58;;;;;;;0.85;0.30;;;15.00;99.90;;;;;;4949444;28;20091;-75